createdAt,value
2017-03-17T00:00:19.291Z,19.73
2017-03-17T00:01:23.891Z,21.05
2017-03-17T00:02:26.039Z,20.33
2017-03-17T00:03:27.404Z,18.42
2017-03-17T00:04:27.090Z,19.58
2017-03-17T00:05:27.115Z,20.23
2017-03-17T00:06:30.403Z,21.07
2017-03-17T00:07:32.736Z,20.65
2017-03-17T00:08:36.260Z,20.65
2017-03-17T00:09:35.348Z,19.48
2017-03-17T00:10:37.447Z,20.70
2017-03-17T00:11:37.348Z,20.87
2017-03-17T00:12:36.716Z,19.98
2017-03-17T00:13:39.309Z,20.52
2017-03-17T00:14:39.267Z,19.88
2017-03-17T00:15:40.119Z,19.80
2017-03-17T00:16:43.066Z,19.20
2017-03-17T00:17:43.736Z,20.00
2017-03-17T00:18:47.802Z,19.47
2017-03-17T00:19:50.057Z,22.22
2017-03-17T00:20:51.895Z,22.13
2017-03-17T00:21:51.234Z,19.43
2017-03-17T00:22:52.054Z,20.78
2017-03-17T00:23:55.759Z,21.78
2017-03-17T00:24:57.057Z,20.78
2017-03-17T00:25:59.000Z,19.58
2017-03-17T00:26:59.446Z,19.48
2017-03-17T00:28:01.763Z,18.22
2017-03-17T00:29:05.819Z,18.77
2017-03-17T00:30:07.623Z,19.22
2017-03-17T00:31:10.620Z,20.08
2017-03-17T00:32:14.656Z,21.15
2017-03-17T00:33:16.399Z,19.78
2017-03-17T00:34:16.170Z,19.05
2017-03-17T00:35:16.582Z,20.98
2017-03-17T00:36:20.769Z,20.30
2017-03-17T00:37:21.908Z,20.28
2017-03-17T00:38:21.560Z,19.82
2017-03-17T00:39:23.064Z,21.20
2017-03-17T00:40:24.044Z,21.73
2017-03-17T00:41:26.052Z,21.25
2017-03-17T00:42:25.478Z,22.47
2017-03-17T00:43:25.535Z,21.08
2017-03-17T00:44:25.948Z,20.52
2017-03-17T00:45:27.020Z,20.10
2017-03-17T00:46:31.025Z,21.67
2017-03-17T00:47:30.710Z,20.20
2017-03-17T00:48:31.588Z,22.83
2017-03-17T00:49:33.348Z,21.38
2017-03-17T00:50:33.507Z,21.58
2017-03-17T00:51:34.695Z,22.47
2017-03-17T00:52:37.581Z,22.85
2017-03-17T00:53:38.705Z,21.55
2017-03-17T00:54:38.731Z,20.38
2017-03-17T00:55:39.148Z,20.13
2017-03-17T00:56:41.698Z,21.00
2017-03-17T00:57:41.494Z,21.12
2017-03-17T00:58:41.723Z,21.47
2017-03-17T00:59:42.252Z,20.92
2017-03-17T01:00:41.446Z,19.88
2017-03-17T01:01:44.712Z,21.17
2017-03-17T01:02:47.819Z,20.25
2017-03-17T01:03:49.590Z,21.80
2017-03-17T01:04:49.997Z,21.42
2017-03-17T01:05:51.506Z,22.13
2017-03-17T01:06:54.151Z,22.88
2017-03-17T01:07:56.320Z,21.80
2017-03-17T01:08:56.225Z,22.68
2017-03-17T01:09:56.196Z,22.53
2017-03-17T01:10:56.710Z,21.57
2017-03-17T01:11:58.212Z,23.92
2017-03-17T01:12:59.795Z,22.63
2017-03-17T01:13:59.744Z,22.27
2017-03-17T01:15:01.830Z,21.07
2017-03-17T01:16:04.590Z,22.10
2017-03-17T01:17:03.744Z,22.42
2017-03-17T01:18:05.081Z,23.33
2017-03-17T01:19:08.409Z,22.92
2017-03-17T01:20:07.977Z,22.33
2017-03-17T01:21:09.784Z,21.17
2017-03-17T01:22:10.196Z,22.32
2017-03-17T01:23:10.871Z,21.85
2017-03-17T01:24:12.573Z,23.73
2017-03-17T01:25:14.567Z,21.83
2017-03-17T01:26:14.936Z,21.17
2017-03-17T01:27:16.528Z,22.28
2017-03-17T01:28:18.666Z,22.33
2017-03-17T01:29:19.327Z,22.18
2017-03-17T01:30:19.604Z,20.97
2017-03-17T01:31:25.541Z,22.55
2017-03-17T01:32:26.625Z,21.60
2017-03-17T01:33:27.300Z,22.50
2017-03-17T01:34:31.738Z,20.98
2017-03-17T01:35:32.464Z,21.40
2017-03-17T01:36:36.976Z,20.47
2017-03-17T01:37:39.548Z,20.93
2017-03-17T01:38:39.444Z,20.82
2017-03-17T01:39:39.680Z,20.05
2017-03-17T01:40:39.286Z,23.28
2017-03-17T01:41:40.192Z,20.92
2017-03-17T01:42:43.057Z,20.85
2017-03-17T01:43:45.672Z,22.77
2017-03-17T01:44:47.315Z,21.98
2017-03-17T01:45:47.193Z,22.60
2017-03-17T01:46:47.060Z,20.32
2017-03-17T01:47:46.988Z,22.40
2017-03-17T01:48:48.534Z,21.50
2017-03-17T01:49:48.077Z,19.80
2017-03-17T01:50:47.862Z,21.05
2017-03-17T01:51:48.977Z,20.75
2017-03-17T01:52:49.204Z,21.52
2017-03-17T01:53:48.356Z,21.02
2017-03-17T01:54:51.823Z,21.42
2017-03-17T01:55:54.791Z,20.38
2017-03-17T01:56:57.691Z,21.20
2017-03-17T01:58:01.952Z,20.70
2017-03-17T01:59:02.216Z,21.33
2017-03-17T02:00:04.848Z,21.00
2017-03-17T02:01:06.259Z,20.72
2017-03-17T02:02:08.171Z,20.17
2017-03-17T02:03:09.432Z,20.77
2017-03-17T02:04:08.688Z,20.35
2017-03-17T02:05:07.801Z,19.60
2017-03-17T02:06:09.624Z,20.02
2017-03-17T02:07:10.839Z,21.12
2017-03-17T02:08:11.147Z,20.67
2017-03-17T02:09:13.938Z,22.73
2017-03-17T02:10:13.603Z,21.08
2017-03-17T02:11:14.855Z,21.25
2017-03-17T02:12:16.547Z,21.27
2017-03-17T02:13:17.572Z,20.20
2017-03-17T02:14:21.782Z,19.73
2017-03-17T02:15:24.595Z,21.25
2017-03-17T02:16:24.767Z,20.88
2017-03-17T02:17:25.896Z,20.30
2017-03-17T02:18:29.056Z,19.80
2017-03-17T02:19:29.483Z,21.25
2017-03-17T02:20:32.699Z,20.50
2017-03-17T02:21:33.558Z,19.98
2017-03-17T02:22:35.693Z,19.47
2017-03-17T02:23:39.480Z,20.50
2017-03-17T02:24:40.679Z,20.58
2017-03-17T02:25:40.067Z,20.53
2017-03-17T02:26:41.543Z,21.45
2017-03-17T02:27:42.985Z,19.10
2017-03-17T02:28:43.920Z,20.55
2017-03-17T02:29:44.152Z,20.90
2017-03-17T02:30:47.756Z,20.37
2017-03-17T02:31:47.931Z,22.90
2017-03-17T02:32:49.395Z,20.38
2017-03-17T02:33:50.206Z,20.95
2017-03-17T02:34:52.248Z,20.53
2017-03-17T02:35:54.227Z,21.60
2017-03-17T02:36:54.803Z,22.83
2017-03-17T02:37:56.218Z,20.68
2017-03-17T02:39:00.291Z,21.38
2017-03-17T02:40:03.689Z,23.97
2017-03-17T02:41:04.107Z,20.48
2017-03-17T02:42:07.785Z,21.33
2017-03-17T02:43:08.828Z,22.85
2017-03-17T02:44:10.459Z,20.97
2017-03-17T02:45:10.353Z,23.48
2017-03-17T02:46:11.247Z,23.05
2017-03-17T02:47:12.556Z,21.13
2017-03-17T02:48:13.084Z,20.70
2017-03-17T02:49:12.665Z,20.10
2017-03-17T02:50:14.996Z,22.97
2017-03-17T02:51:17.167Z,22.58
2017-03-17T02:52:17.632Z,20.90
2017-03-17T02:53:17.599Z,21.25
2017-03-17T02:54:17.920Z,23.65
2017-03-17T02:55:21.880Z,21.13
2017-03-17T02:56:22.555Z,23.97
2017-03-17T02:57:24.564Z,23.78
2017-03-17T02:58:26.060Z,22.18
2017-03-17T02:59:28.145Z,20.83
2017-03-17T03:00:28.713Z,22.67
2017-03-17T03:01:29.123Z,21.57
2017-03-17T03:02:31.240Z,21.47
2017-03-17T03:03:33.421Z,20.83
2017-03-17T03:04:33.871Z,21.03
2017-03-17T03:05:34.003Z,21.60
2017-03-17T03:06:34.262Z,21.10
2017-03-17T03:07:35.423Z,21.75
2017-03-17T03:08:36.736Z,19.95
2017-03-17T03:09:38.019Z,21.97
2017-03-17T03:10:38.447Z,20.93
2017-03-17T03:11:40.549Z,21.30
2017-03-17T03:12:42.189Z,20.38
2017-03-17T03:13:41.971Z,20.63
2017-03-17T03:14:42.395Z,20.83
2017-03-17T03:15:43.948Z,20.78
2017-03-17T03:16:43.600Z,20.13
2017-03-17T03:17:47.860Z,19.53
2017-03-17T03:18:50.308Z,20.75
2017-03-17T03:19:51.617Z,19.67
2017-03-17T03:20:52.699Z,19.95
2017-03-17T03:21:52.943Z,19.67
2017-03-17T03:22:56.352Z,19.80
2017-03-17T03:23:56.706Z,21.18
2017-03-17T03:25:00.483Z,19.57
2017-03-17T03:26:01.612Z,19.82
2017-03-17T03:27:05.692Z,21.82
2017-03-17T03:28:09.473Z,19.95
2017-03-17T03:29:09.342Z,20.83
2017-03-17T03:30:09.555Z,21.43
2017-03-17T03:31:09.376Z,20.73
2017-03-17T03:32:09.779Z,19.78
2017-03-17T03:33:10.744Z,20.87
2017-03-17T03:34:11.730Z,19.62
2017-03-17T03:35:13.560Z,21.22
2017-03-17T03:36:12.935Z,20.90
2017-03-17T03:37:18.344Z,20.05
2017-03-17T03:38:21.468Z,20.18
2017-03-17T03:39:21.861Z,18.83
2017-03-17T03:40:21.959Z,19.63
2017-03-17T03:41:22.367Z,19.45
2017-03-17T03:42:22.388Z,20.37
2017-03-17T03:43:23.947Z,20.35
2017-03-17T03:44:24.490Z,20.33
2017-03-17T03:45:26.480Z,19.75
2017-03-17T03:46:26.555Z,21.17
2017-03-17T03:47:30.328Z,21.13
2017-03-17T03:48:31.061Z,19.18
2017-03-17T03:49:31.267Z,19.95
2017-03-17T03:50:32.096Z,19.65
2017-03-17T03:51:36.081Z,20.90
2017-03-17T03:52:36.559Z,20.30
2017-03-17T03:53:37.552Z,19.58
2017-03-17T03:54:38.288Z,18.25
2017-03-17T03:55:40.299Z,20.93
2017-03-17T03:56:44.775Z,22.15
2017-03-17T03:57:44.209Z,18.13
2017-03-17T03:58:46.973Z,19.98
2017-03-17T03:59:47.678Z,18.53
2017-03-17T04:00:48.536Z,20.57
2017-03-17T04:01:49.127Z,18.72
2017-03-17T04:02:49.220Z,19.40
2017-03-17T04:03:51.511Z,20.22
2017-03-17T04:04:53.513Z,20.52
2017-03-17T04:05:53.073Z,19.78
2017-03-17T04:06:53.272Z,18.22
2017-03-17T04:07:57.044Z,21.22
2017-03-17T04:08:57.912Z,20.63
2017-03-17T04:09:59.272Z,19.10
2017-03-17T04:11:01.209Z,20.38
2017-03-17T04:12:01.324Z,20.70
2017-03-17T04:13:05.828Z,19.93
2017-03-17T04:14:09.708Z,20.53
2017-03-17T04:15:10.184Z,19.38
2017-03-17T04:16:13.863Z,21.18
2017-03-17T04:17:17.147Z,20.15
2017-03-17T04:18:17.292Z,18.58
2017-03-17T04:19:17.895Z,20.18
2017-03-17T04:20:24.044Z,21.47
2017-03-17T04:21:24.284Z,20.63
2017-03-17T04:22:26.585Z,23.08
2017-03-17T04:23:27.965Z,21.02
2017-03-17T04:24:29.727Z,21.23
2017-03-17T04:25:33.413Z,19.17
2017-03-17T04:26:35.155Z,20.62
2017-03-17T04:27:35.886Z,20.55
2017-03-17T04:28:38.017Z,20.38
2017-03-17T04:29:40.939Z,18.42
2017-03-17T04:30:42.767Z,19.27
2017-03-17T04:31:42.127Z,21.00
2017-03-17T04:32:42.680Z,20.10
2017-03-17T04:33:43.868Z,20.90
2017-03-17T04:34:47.096Z,21.05
2017-03-17T04:35:48.131Z,19.80
2017-03-17T04:36:50.719Z,18.77
2017-03-17T04:37:50.708Z,20.75
2017-03-17T04:38:50.460Z,19.72
2017-03-17T04:39:52.751Z,21.32
2017-03-17T04:40:56.080Z,18.50
2017-03-17T04:41:56.351Z,20.33
2017-03-17T04:42:55.861Z,19.53
2017-03-17T04:43:59.034Z,20.63
2017-03-17T04:45:03.204Z,20.10
2017-03-17T04:46:03.852Z,19.90
2017-03-17T04:47:06.057Z,18.95
2017-03-17T04:48:06.464Z,21.27
2017-03-17T04:49:08.609Z,19.75
2017-03-17T04:50:08.331Z,20.25
2017-03-17T04:51:12.812Z,20.35
2017-03-17T04:52:13.106Z,19.40
2017-03-17T04:53:14.977Z,18.27
2017-03-17T04:54:18.538Z,19.15
2017-03-17T04:55:21.339Z,21.83
2017-03-17T04:56:20.695Z,20.65
2017-03-17T04:57:22.394Z,19.88
2017-03-17T04:58:22.975Z,20.35
2017-03-17T04:59:26.151Z,19.33
2017-03-17T05:00:28.059Z,20.25
2017-03-17T05:01:29.383Z,19.48
2017-03-17T05:02:29.222Z,21.12
2017-03-17T05:03:31.592Z,21.62
2017-03-17T05:04:33.060Z,19.27
2017-03-17T05:05:33.600Z,19.63
2017-03-17T05:06:36.316Z,20.10
2017-03-17T05:07:38.379Z,19.75
2017-03-17T05:08:38.747Z,20.95
2017-03-17T05:09:40.103Z,20.15
2017-03-17T05:10:42.352Z,20.10
2017-03-17T05:11:42.436Z,20.08
2017-03-17T05:12:43.472Z,19.88
2017-03-17T05:13:44.732Z,19.63
2017-03-17T05:14:44.533Z,19.68
2017-03-17T05:15:45.514Z,20.58
2017-03-17T05:16:45.137Z,20.48
2017-03-17T05:17:45.162Z,20.02
2017-03-17T05:18:46.337Z,20.07
2017-03-17T05:19:47.322Z,21.62
2017-03-17T05:20:48.045Z,19.37
2017-03-17T05:21:52.039Z,21.50
2017-03-17T05:22:52.712Z,19.95
2017-03-17T05:23:55.406Z,19.65
2017-03-17T05:24:56.313Z,21.50
2017-03-17T05:25:56.593Z,20.73
2017-03-17T05:26:57.203Z,19.43
2017-03-17T05:27:57.844Z,20.77
2017-03-17T05:28:59.021Z,20.52
2017-03-17T05:29:58.804Z,19.50
2017-03-17T05:30:59.899Z,20.50
2017-03-17T05:32:01.348Z,20.60
2017-03-17T05:33:04.829Z,19.50
2017-03-17T05:34:07.928Z,19.65
2017-03-17T05:35:09.141Z,20.10
2017-03-17T05:36:11.699Z,21.33
2017-03-17T05:37:13.304Z,18.80
2017-03-17T05:38:15.599Z,19.65
2017-03-17T05:39:16.649Z,20.35
2017-03-17T05:40:17.990Z,19.18
2017-03-17T05:41:17.942Z,20.73
2017-03-17T05:42:19.863Z,20.85
2017-03-17T05:43:21.919Z,22.47
2017-03-17T05:44:21.265Z,20.50
2017-03-17T05:45:20.463Z,20.13
2017-03-17T05:46:20.936Z,19.05
2017-03-17T05:47:26.323Z,19.77
2017-03-17T05:48:26.540Z,21.70
2017-03-17T05:49:27.559Z,21.43
2017-03-17T05:50:28.347Z,20.97
2017-03-17T05:51:28.299Z,21.70
2017-03-17T05:52:30.063Z,18.93
2017-03-17T05:53:31.952Z,19.20
2017-03-17T05:54:32.723Z,20.22
2017-03-17T05:55:32.399Z,20.85
2017-03-17T05:56:32.599Z,20.47
2017-03-17T05:57:34.311Z,20.75
2017-03-17T05:58:36.175Z,20.00
2017-03-17T05:59:35.218Z,21.68
2017-03-17T06:00:35.688Z,19.15
2017-03-17T06:01:36.556Z,21.50
2017-03-17T06:02:36.492Z,21.07
2017-03-17T06:03:41.868Z,20.78
2017-03-17T06:04:42.708Z,20.93
2017-03-17T06:05:45.139Z,19.83
2017-03-17T06:06:47.109Z,20.80
2017-03-17T06:07:47.444Z,22.52
2017-03-17T06:08:48.101Z,21.50
2017-03-17T06:09:47.490Z,22.62
2017-03-17T06:10:48.613Z,22.43
2017-03-17T06:11:49.246Z,21.52
2017-03-17T06:12:48.944Z,21.15
2017-03-17T06:13:50.286Z,20.77
2017-03-17T06:14:50.075Z,20.60
2017-03-17T06:15:50.144Z,21.37
2017-03-17T06:16:51.160Z,21.18
2017-03-17T06:17:51.958Z,20.98
2017-03-17T06:18:56.155Z,21.53
2017-03-17T06:19:57.548Z,22.12
2017-03-17T06:20:59.175Z,20.88
2017-03-17T06:22:02.425Z,22.00
2017-03-17T06:23:04.464Z,21.03
2017-03-17T06:24:06.192Z,20.40
2017-03-17T06:25:05.603Z,21.33
2017-03-17T06:26:05.404Z,21.68
2017-03-17T06:27:10.256Z,22.48
2017-03-17T06:28:13.436Z,20.50
2017-03-17T06:29:14.191Z,21.45
2017-03-17T06:30:13.771Z,22.20
2017-03-17T06:31:16.320Z,21.80
2017-03-17T06:32:19.918Z,21.72
2017-03-17T06:33:20.844Z,22.78
2017-03-17T06:34:23.260Z,23.37
2017-03-17T06:35:25.188Z,22.85
2017-03-17T06:36:26.370Z,20.52
2017-03-17T06:37:26.277Z,21.80
2017-03-17T06:38:30.337Z,20.27
2017-03-17T06:39:29.999Z,21.73
2017-03-17T06:40:30.020Z,21.10
2017-03-17T06:41:30.040Z,23.62
2017-03-17T06:42:33.731Z,19.78
2017-03-17T06:43:34.708Z,21.65
2017-03-17T06:44:36.935Z,22.53
2017-03-17T06:45:38.950Z,20.52
2017-03-17T06:46:40.180Z,22.57
2017-03-17T06:47:44.954Z,21.98
2017-03-17T06:48:46.647Z,22.88
2017-03-17T06:49:47.396Z,22.17
2017-03-17T06:50:48.928Z,22.05
2017-03-17T06:51:49.133Z,20.78
2017-03-17T06:52:49.733Z,22.65
2017-03-17T06:53:51.850Z,21.68
2017-03-17T06:54:53.154Z,20.23
2017-03-17T06:55:54.255Z,21.00
2017-03-17T06:56:55.412Z,20.83
2017-03-17T06:57:56.577Z,21.38
2017-03-17T06:58:59.385Z,20.92
2017-03-17T06:59:59.616Z,20.90
2017-03-17T07:01:02.522Z,21.57
2017-03-17T07:02:03.337Z,22.97
2017-03-17T07:03:07.068Z,21.85
2017-03-17T07:04:07.628Z,22.37
2017-03-17T07:05:11.667Z,22.47
2017-03-17T07:06:12.299Z,23.32
2017-03-17T07:07:13.552Z,22.35
2017-03-17T07:08:14.807Z,21.25
2017-03-17T07:09:14.654Z,21.88
2017-03-17T07:10:15.802Z,22.10
2017-03-17T07:11:15.992Z,22.68
2017-03-17T07:12:17.359Z,21.00
2017-03-17T07:13:16.843Z,22.72
2017-03-17T07:14:19.104Z,24.10
2017-03-17T07:15:22.583Z,22.22
2017-03-17T07:16:24.564Z,21.97
2017-03-17T07:17:26.480Z,22.38
2017-03-17T07:18:27.925Z,23.32
2017-03-17T07:19:27.675Z,21.77
2017-03-17T07:20:30.704Z,21.67
2017-03-17T07:21:30.435Z,21.32
2017-03-17T07:22:30.208Z,20.93
2017-03-17T07:23:30.703Z,23.58
2017-03-17T07:24:33.097Z,20.88
2017-03-17T07:25:34.335Z,22.78
2017-03-17T07:26:36.348Z,23.55
2017-03-17T07:27:36.493Z,22.95
2017-03-17T07:28:37.937Z,21.53
2017-03-17T07:29:40.361Z,22.88
2017-03-17T07:30:41.175Z,23.33
2017-03-17T07:31:41.608Z,21.63
2017-03-17T07:32:42.476Z,22.35
2017-03-17T07:33:44.100Z,20.98
2017-03-17T07:34:44.371Z,24.12
2017-03-17T07:35:45.464Z,21.90
2017-03-17T07:36:47.121Z,22.45
2017-03-17T07:37:53.572Z,23.23
2017-03-17T07:38:57.087Z,23.13
2017-03-17T07:39:59.072Z,22.25
2017-03-17T07:41:00.517Z,22.65
2017-03-17T07:42:01.278Z,23.70
2017-03-17T07:43:01.232Z,21.98
2017-03-17T07:44:03.610Z,22.68
2017-03-17T07:45:03.611Z,22.35
2017-03-17T07:46:05.035Z,23.10
2017-03-17T07:47:09.940Z,21.33
2017-03-17T07:48:09.899Z,21.10
2017-03-17T07:49:09.072Z,23.67
2017-03-17T07:50:09.840Z,20.48
2017-03-17T07:51:12.758Z,23.07
2017-03-17T07:52:17.026Z,21.75
2017-03-17T07:53:19.582Z,24.28
2017-03-17T07:54:21.237Z,23.65
2017-03-17T07:55:22.440Z,25.75
2017-03-17T07:56:22.607Z,23.87
2017-03-17T07:57:22.060Z,22.83
2017-03-17T07:58:23.816Z,21.25
2017-03-17T07:59:27.192Z,22.12
2017-03-17T08:00:30.573Z,21.72
2017-03-17T08:01:31.168Z,23.93
2017-03-17T08:02:32.528Z,22.43
2017-03-17T08:03:31.856Z,22.23
2017-03-17T08:04:31.412Z,22.42
2017-03-17T08:05:34.319Z,21.48
2017-03-17T08:06:36.922Z,20.62
2017-03-17T08:07:39.152Z,20.20
2017-03-17T08:08:40.592Z,21.25
2017-03-17T08:09:42.801Z,20.65
2017-03-17T08:10:43.143Z,20.70
2017-03-17T08:11:43.977Z,19.47
2017-03-17T08:12:44.964Z,19.22
2017-03-17T08:13:44.764Z,17.40
2017-03-17T08:14:48.861Z,17.28
2017-03-17T08:15:48.913Z,16.27
2017-03-17T08:16:51.266Z,15.98
2017-03-17T08:17:53.871Z,16.58
2017-03-17T08:18:53.765Z,15.38
2017-03-17T08:19:54.907Z,15.60
2017-03-17T08:20:54.895Z,16.68
2017-03-17T08:21:56.248Z,15.78
2017-03-17T08:22:57.807Z,16.30
2017-03-17T08:23:58.164Z,14.87
2017-03-17T08:25:01.077Z,16.65
2017-03-17T08:26:02.416Z,15.78
2017-03-17T08:27:02.079Z,14.45
2017-03-17T08:28:02.419Z,13.62
2017-03-17T08:29:03.652Z,14.77
2017-03-17T08:30:04.379Z,16.17
2017-03-17T08:31:05.843Z,14.78
2017-03-17T08:32:10.168Z,15.05
2017-03-17T08:33:11.859Z,16.08
2017-03-17T08:34:10.451Z,14.73
2017-03-17T08:35:09.575Z,15.42
2017-03-17T08:36:11.424Z,14.23
2017-03-17T08:37:12.491Z,17.77
2017-03-17T08:38:13.986Z,16.40
2017-03-17T08:39:14.909Z,14.80
2017-03-17T08:40:16.080Z,16.75
2017-03-17T08:41:16.935Z,14.58
2017-03-17T08:42:17.902Z,15.12
2017-03-17T08:43:18.986Z,14.05
2017-03-17T08:44:19.923Z,15.60
2017-03-17T08:45:19.375Z,15.48
2017-03-17T08:46:19.052Z,15.75
2017-03-17T08:47:20.936Z,15.38
2017-03-17T08:48:22.877Z,15.42
2017-03-17T08:49:23.719Z,15.45
2017-03-17T08:50:23.195Z,14.33
2017-03-17T08:51:23.820Z,16.38
2017-03-17T08:52:23.053Z,15.20
2017-03-17T08:53:21.948Z,15.92
2017-03-17T08:54:22.752Z,13.35
2017-03-17T08:55:23.322Z,15.45
2017-03-17T08:56:24.311Z,14.48
2017-03-17T08:57:24.209Z,14.50
2017-03-17T08:58:27.619Z,15.18
2017-03-17T08:59:30.627Z,14.20
2017-03-17T09:00:31.038Z,13.45
2017-03-17T09:01:33.504Z,13.70
2017-03-17T09:02:35.024Z,15.25
2017-03-17T09:03:36.596Z,14.63
2017-03-17T09:04:35.571Z,12.80
2017-03-17T09:05:39.973Z,14.03
2017-03-17T09:06:43.371Z,13.85
2017-03-17T09:07:49.188Z,13.25
2017-03-17T09:08:53.645Z,13.40
2017-03-17T09:09:55.304Z,13.80
2017-03-17T09:10:57.226Z,12.92
2017-03-17T09:11:57.319Z,12.20
2017-03-17T09:13:00.824Z,13.30
2017-03-17T09:14:03.803Z,13.83
2017-03-17T09:15:03.884Z,12.93
2017-03-17T09:16:03.556Z,12.37
2017-03-17T09:17:04.567Z,13.47
2017-03-17T09:18:07.093Z,13.23
2017-03-17T09:19:08.721Z,13.88
2017-03-17T09:20:09.580Z,14.17
2017-03-17T09:21:11.140Z,14.05
2017-03-17T09:22:11.155Z,13.62
2017-03-17T09:23:11.452Z,14.82
2017-03-17T09:24:14.427Z,13.18
2017-03-17T09:25:15.347Z,14.27
2017-03-17T09:26:15.192Z,13.67
2017-03-17T09:27:18.428Z,13.88
2017-03-17T09:28:17.586Z,14.17
2017-03-17T09:29:21.555Z,14.63
2017-03-17T09:30:22.276Z,14.35
2017-03-17T09:31:22.214Z,13.48
2017-03-17T09:32:23.492Z,13.58
2017-03-17T09:33:25.313Z,14.22
2017-03-17T09:34:26.834Z,14.67
2017-03-17T09:35:26.999Z,14.75
2017-03-17T09:36:27.618Z,13.82
2017-03-17T09:37:27.711Z,14.20
2017-03-17T09:38:28.068Z,13.52
2017-03-17T09:39:28.993Z,13.40
2017-03-17T09:40:28.959Z,12.63
2017-03-17T09:41:29.710Z,13.22
2017-03-17T09:42:31.346Z,12.77
2017-03-17T09:43:32.142Z,12.47
2017-03-17T09:44:32.638Z,13.62
2017-03-17T09:45:34.371Z,13.22
2017-03-17T09:46:35.701Z,12.88
2017-03-17T09:47:36.421Z,13.28
2017-03-17T09:48:36.390Z,13.55
2017-03-17T09:49:36.864Z,13.68
2017-03-17T09:50:36.215Z,13.92
2017-03-17T09:51:38.623Z,14.10
2017-03-17T09:52:43.098Z,12.95
2017-03-17T09:53:46.896Z,13.72
2017-03-17T09:54:48.379Z,13.63
2017-03-17T09:55:49.672Z,13.50
2017-03-17T09:56:51.819Z,12.38
2017-03-17T09:57:54.237Z,13.27
2017-03-17T09:58:54.495Z,13.37
2017-03-17T09:59:54.310Z,15.32
2017-03-17T10:00:53.904Z,12.85
2017-03-17T10:01:53.346Z,14.58
2017-03-17T10:02:55.247Z,13.63
2017-03-17T10:03:56.160Z,13.75
2017-03-17T10:04:58.100Z,15.02
2017-03-17T10:05:59.719Z,14.53
2017-03-17T10:06:59.566Z,15.15
2017-03-17T10:08:04.234Z,14.82
2017-03-17T10:09:07.073Z,13.85
2017-03-17T10:10:11.515Z,13.92
2017-03-17T10:11:12.192Z,14.05
2017-03-17T10:12:14.576Z,12.97
2017-03-17T10:13:14.793Z,14.28
2017-03-17T10:14:18.484Z,13.72
2017-03-17T10:15:18.604Z,14.22
2017-03-17T10:16:21.372Z,15.08
2017-03-17T10:17:24.512Z,13.42
2017-03-17T10:18:27.114Z,14.87
2017-03-17T10:19:30.664Z,14.38
2017-03-17T10:20:30.485Z,13.67
2017-03-17T10:21:30.872Z,12.87
2017-03-17T10:22:32.049Z,14.10
2017-03-17T10:23:32.884Z,14.87
2017-03-17T10:24:34.887Z,14.42
2017-03-17T10:25:34.907Z,14.98
2017-03-17T10:26:36.199Z,13.18
2017-03-17T10:27:38.422Z,14.25
2017-03-17T10:28:39.751Z,13.83
2017-03-17T10:29:39.879Z,14.60
2017-03-17T10:30:52.066Z,13.70
2017-03-17T10:31:52.650Z,10.05
2017-03-17T10:32:55.336Z,8.95
2017-03-17T10:33:55.512Z,11.45
2017-03-17T10:35:00.342Z,10.98
2017-03-17T10:36:03.515Z,9.60
2017-03-17T10:37:07.332Z,10.52
2017-03-17T10:38:10.216Z,10.13
2017-03-17T10:39:10.181Z,7.43
2017-03-17T10:40:09.601Z,7.60
2017-03-17T10:41:08.771Z,7.62
2017-03-17T10:42:11.023Z,8.55
2017-03-17T10:43:12.138Z,7.80
2017-03-17T10:44:13.368Z,7.80
2017-03-17T10:45:12.947Z,7.32
2017-03-17T10:46:17.999Z,7.00
2017-03-17T10:47:21.724Z,8.25
2017-03-17T10:48:21.693Z,8.45
2017-03-17T10:49:21.308Z,8.08
2017-03-17T10:50:23.355Z,8.10
2017-03-17T10:51:25.444Z,7.75
2017-03-17T10:52:27.761Z,7.93
2017-03-17T10:53:28.312Z,7.45
2017-03-17T10:54:33.412Z,8.85
2017-03-17T10:55:34.552Z,7.72
2017-03-17T10:56:35.131Z,7.48
2017-03-17T10:57:39.893Z,6.80
2017-03-17T10:58:40.601Z,7.25
2017-03-17T10:59:42.412Z,8.30
2017-03-17T11:00:43.252Z,7.40
2017-03-17T11:01:43.889Z,6.52
2017-03-17T11:02:45.455Z,6.73
2017-03-17T11:03:47.410Z,7.65
2017-03-17T11:04:49.157Z,6.82
2017-03-17T11:05:50.354Z,7.30
2017-03-17T11:06:51.819Z,5.82
2017-03-17T11:07:53.689Z,7.03
2017-03-17T11:08:58.377Z,6.08
2017-03-17T11:09:59.222Z,6.43
2017-03-17T11:11:00.100Z,7.08
2017-03-17T11:11:59.833Z,7.28
2017-03-17T11:13:03.371Z,7.30
2017-03-17T11:14:04.485Z,5.72
2017-03-17T11:15:04.555Z,7.12
2017-03-17T11:16:04.598Z,6.38
2017-03-17T11:17:04.601Z,6.25
2017-03-17T11:18:07.201Z,6.85
2017-03-17T11:19:09.640Z,5.88
2017-03-17T11:20:10.875Z,7.02
2017-03-17T11:21:14.982Z,6.63
2017-03-17T11:22:18.957Z,6.05
2017-03-17T11:23:19.648Z,5.43
2017-03-17T11:24:21.668Z,5.48
2017-03-17T11:25:22.293Z,5.52
2017-03-17T11:26:27.531Z,5.45
2017-03-17T11:27:28.344Z,5.78
2017-03-17T11:28:28.996Z,5.70
2017-03-17T11:29:30.919Z,5.57
2017-03-17T11:30:31.518Z,5.92
2017-03-17T11:31:32.075Z,5.87
2017-03-17T11:32:35.865Z,5.95
2017-03-17T11:33:40.557Z,5.90
2017-03-17T11:34:42.412Z,4.90
2017-03-17T11:35:43.460Z,5.37
2017-03-17T11:36:43.680Z,5.70
2017-03-17T11:37:43.579Z,5.97
2017-03-17T11:38:43.539Z,5.18
2017-03-17T11:39:50.206Z,5.73
2017-03-17T11:40:51.148Z,7.05
2017-03-17T11:41:54.164Z,6.07
2017-03-17T11:42:54.747Z,5.77
2017-03-17T11:43:54.692Z,6.90
2017-03-17T11:44:58.276Z,6.57
2017-03-17T11:46:02.363Z,6.27
2017-03-17T11:47:07.156Z,6.00
2017-03-17T11:48:07.807Z,6.55
2017-03-17T11:49:11.031Z,6.70
2017-03-17T11:50:11.935Z,5.47
2017-03-17T11:51:11.587Z,6.07
2017-03-17T11:52:12.727Z,6.13
2017-03-17T11:53:16.217Z,5.60
2017-03-17T11:54:21.308Z,6.58
2017-03-17T11:55:21.628Z,6.53
2017-03-17T11:56:22.306Z,6.43
2017-03-17T11:57:26.002Z,7.62
2017-03-17T11:58:27.243Z,6.88
2017-03-17T11:59:26.846Z,8.15
2017-03-17T12:00:27.191Z,8.12
2017-03-17T12:01:28.294Z,8.80
2017-03-17T12:02:28.423Z,8.77
2017-03-17T12:03:32.832Z,7.58
2017-03-17T12:04:33.319Z,9.25
2017-03-17T12:05:33.812Z,9.60
2017-03-17T12:06:37.216Z,9.85
2017-03-17T12:07:37.648Z,9.70
2017-03-17T12:08:39.295Z,9.80
2017-03-17T12:09:39.671Z,11.18
2017-03-17T12:10:43.103Z,13.47
2017-03-17T12:11:43.954Z,13.35
2017-03-17T12:12:44.952Z,12.05
2017-03-17T12:13:46.159Z,12.02
2017-03-17T12:14:48.675Z,11.08
2017-03-17T12:15:50.059Z,12.52
2017-03-17T12:16:49.803Z,12.27
2017-03-17T12:17:53.569Z,11.75
2017-03-17T12:18:54.544Z,12.63
2017-03-17T12:19:57.596Z,14.90
2017-03-17T12:20:59.649Z,14.53
2017-03-17T12:22:00.689Z,14.15
2017-03-17T12:23:00.219Z,13.38
2017-03-17T12:24:00.723Z,13.15
2017-03-17T12:25:01.035Z,14.20
2017-03-17T12:26:01.259Z,14.67
2017-03-17T12:27:01.380Z,14.40
2017-03-17T12:28:03.475Z,13.73
2017-03-17T12:29:05.417Z,13.67
2017-03-17T12:30:09.068Z,13.70
2017-03-17T12:31:12.075Z,12.30
2017-03-17T12:32:13.352Z,13.23
2017-03-17T12:33:13.790Z,14.47
2017-03-17T12:34:14.115Z,13.57
2017-03-17T12:35:17.777Z,13.45
2017-03-17T12:36:19.141Z,14.67
2017-03-17T12:37:19.650Z,13.60
2017-03-17T12:38:22.200Z,14.73
2017-03-17T12:39:22.099Z,14.93
2017-03-17T12:40:22.711Z,14.42
2017-03-17T12:41:26.745Z,15.02
2017-03-17T12:42:28.131Z,14.92
2017-03-17T12:43:31.848Z,16.82
2017-03-17T12:44:34.228Z,16.58
2017-03-17T12:45:35.244Z,15.95
2017-03-17T12:46:38.969Z,17.35
2017-03-17T12:47:41.925Z,19.25
2017-03-17T12:48:41.379Z,18.12
2017-03-17T12:49:42.521Z,17.18
2017-03-17T12:50:43.279Z,15.97
2017-03-17T12:51:44.524Z,15.63
2017-03-17T12:52:46.050Z,14.78
2017-03-17T12:53:46.908Z,15.13
2017-03-17T12:54:50.386Z,16.98
2017-03-17T12:55:51.495Z,16.72
2017-03-17T12:56:53.468Z,14.53
2017-03-17T12:57:55.423Z,16.28
2017-03-17T12:58:57.372Z,15.63
2017-03-17T12:59:58.712Z,16.48
2017-03-17T13:01:00.280Z,15.78
2017-03-17T13:02:01.597Z,16.28
2017-03-17T13:03:03.403Z,17.40
2017-03-17T13:04:05.076Z,16.37
2017-03-17T13:05:07.063Z,16.68
2017-03-17T13:06:08.368Z,14.95
2017-03-17T13:07:09.284Z,15.18
2017-03-17T13:08:09.645Z,14.88
2017-03-17T13:09:09.816Z,16.00
2017-03-17T13:10:10.042Z,16.02
2017-03-17T13:11:09.673Z,16.50
2017-03-17T13:12:11.193Z,15.23
2017-03-17T13:13:12.536Z,13.75
2017-03-17T13:14:14.836Z,14.95